createdAt,value
2022-12-18T00:00:08.080Z,-3.07
2022-12-18T00:03:16.386Z,-3.11
2022-12-18T00:06:20.200Z,-3.17
2022-12-18T00:09:24.713Z,-3.10
2022-12-18T00:12:29.879Z,-3.02
2022-12-18T00:15:35.696Z,-3.14
2022-12-18T00:18:38.774Z,-3.05
2022-12-18T00:21:41.893Z,-3.02
2022-12-18T00:24:44.801Z,-3.04
2022-12-18T00:27:47.336Z,-2.96
2022-12-18T00:30:52.390Z,-3.09
2022-12-18T00:33:56.703Z,-3.09
2022-12-18T00:36:59.368Z,-3.19
2022-12-18T00:40:02.298Z,-3.20
2022-12-18T00:43:05.067Z,-3.32
2022-12-18T00:46:07.645Z,-3.30
2022-12-18T00:49:15.113Z,-3.19
2022-12-18T00:52:17.641Z,-3.27
2022-12-18T00:55:20.487Z,-3.32
2022-12-18T00:58:23.244Z,-3.31
2022-12-18T01:01:26.073Z,-3.25
2022-12-18T01:04:32.963Z,-3.25
2022-12-18T01:07:36.325Z,-3.26
2022-12-18T01:10:42.038Z,-3.33
2022-12-18T01:13:45.290Z,-3.36
2022-12-18T01:16:47.778Z,-3.38
2022-12-18T01:19:50.629Z,-3.41
2022-12-18T01:22:53.091Z,-3.48
2022-12-18T01:25:56.998Z,-3.45
2022-12-18T01:28:59.515Z,-3.48
2022-12-18T01:32:02.368Z,-3.63
2022-12-18T01:35:06.579Z,-3.50
2022-12-18T01:38:09.604Z,-3.58
2022-12-18T01:41:12.886Z,-3.46
2022-12-18T01:44:55.063Z,-3.53
2022-12-18T01:48:02.417Z,-3.54
2022-12-18T01:51:05.791Z,-3.62
2022-12-18T01:54:08.571Z,-3.60
2022-12-18T01:57:11.520Z,-3.57
2022-12-18T02:00:20.207Z,-3.39
2022-12-18T02:03:22.992Z,-3.46
2022-12-18T02:06:40.965Z,-3.39
2022-12-18T02:10:12.254Z,-3.57
2022-12-18T02:13:31.008Z,-3.65
2022-12-18T02:16:33.818Z,-3.56
2022-12-18T02:19:45.778Z,-3.49
2022-12-18T02:23:11.941Z,-3.52
2022-12-18T02:26:37.311Z,-3.59
2022-12-18T02:29:57.631Z,-3.61
2022-12-18T02:33:04.954Z,-3.61
2022-12-18T02:36:11.764Z,-3.67
2022-12-18T02:39:16.626Z,-3.75
2022-12-18T02:42:20.770Z,-3.81
2022-12-18T02:45:24.000Z,-3.73
2022-12-18T02:48:33.914Z,-3.81
2022-12-18T02:51:47.618Z,-3.85
2022-12-18T02:55:08.190Z,-3.66
2022-12-18T02:58:20.185Z,-3.58
2022-12-18T03:01:37.013Z,-3.68
2022-12-18T03:04:50.668Z,-3.69
2022-12-18T03:07:59.347Z,-3.72
2022-12-18T03:11:07.160Z,-3.77
2022-12-18T03:14:13.902Z,-3.68
2022-12-18T03:17:21.660Z,-3.81
2022-12-18T03:20:26.735Z,-3.92
2022-12-18T03:23:35.553Z,-3.82
2022-12-18T03:26:44.809Z,-3.94
2022-12-18T03:30:08.554Z,-4.00
2022-12-18T03:33:21.334Z,-4.04
2022-12-18T03:36:24.846Z,-4.09
2022-12-18T03:39:28.249Z,-4.08
2022-12-18T03:42:52.232Z,-4.15
2022-12-18T03:46:04.009Z,-4.18
2022-12-18T03:49:15.023Z,-4.23
2022-12-18T03:52:58.518Z,-4.24
2022-12-18T03:56:03.093Z,-4.28
2022-12-18T03:59:09.106Z,-4.35
2022-12-18T04:02:14.699Z,-4.38
2022-12-18T04:05:18.683Z,-4.42
2022-12-18T04:08:23.621Z,-4.38
2022-12-18T04:11:27.403Z,-4.33
2022-12-18T04:14:29.896Z,-4.39
2022-12-18T04:17:32.839Z,-4.44
2022-12-18T04:20:35.759Z,-4.48
2022-12-18T04:23:39.594Z,-4.55
2022-12-18T04:26:42.829Z,-4.50
2022-12-18T04:29:46.075Z,-4.59
2022-12-18T04:32:52.161Z,-4.63
2022-12-18T04:35:55.779Z,-4.57
2022-12-18T04:38:59.003Z,-4.58
2022-12-18T04:42:01.803Z,-4.59
2022-12-18T04:45:04.769Z,-4.48
2022-12-18T04:48:07.749Z,-4.56
2022-12-18T04:51:10.167Z,-4.60
2022-12-18T04:54:12.838Z,-4.58
2022-12-18T04:57:15.326Z,-4.59
2022-12-18T05:00:18.258Z,-4.63
2022-12-18T05:03:20.741Z,-4.64
2022-12-18T05:06:23.607Z,-4.67
2022-12-18T05:09:26.126Z,-4.73
2022-12-18T05:12:28.905Z,-4.77
2022-12-18T05:15:32.541Z,-4.69
2022-12-18T05:18:35.975Z,-4.77
2022-12-18T05:21:38.431Z,-4.82
2022-12-18T05:24:41.135Z,-4.84
2022-12-18T05:27:43.624Z,-4.83
2022-12-18T05:30:54.772Z,-4.82
2022-12-18T05:33:57.283Z,-4.81
2022-12-18T05:37:00.317Z,-4.76
2022-12-18T05:40:04.838Z,-4.82
2022-12-18T05:43:07.653Z,-4.85
2022-12-18T05:46:16.648Z,-4.81
2022-12-18T05:49:19.574Z,-4.73
2022-12-18T05:52:22.232Z,-4.78
2022-12-18T05:55:24.962Z,-4.67
2022-12-18T05:58:27.433Z,-4.77
2022-12-18T06:01:30.358Z,-4.77
2022-12-18T06:04:33.886Z,-4.76
2022-12-18T06:07:38.218Z,-4.77
2022-12-18T06:10:41.648Z,-4.76
2022-12-18T06:13:44.097Z,-4.79
2022-12-18T06:16:46.813Z,-4.81
2022-12-18T06:19:49.337Z,-4.78
2022-12-18T06:22:52.191Z,-4.81
2022-12-18T06:25:54.838Z,-4.81
2022-12-18T06:28:57.913Z,-4.72
2022-12-18T06:32:01.128Z,-4.67
2022-12-18T06:35:04.863Z,-4.77
2022-12-18T06:38:07.971Z,-4.80
2022-12-18T06:41:13.808Z,-4.82
2022-12-18T06:44:16.568Z,-4.87
2022-12-18T06:47:19.754Z,-4.88
2022-12-18T06:50:23.527Z,-4.84
2022-12-18T06:53:26.562Z,-4.83
2022-12-18T06:56:29.161Z,-4.81
2022-12-18T06:59:31.864Z,-4.75
2022-12-18T07:02:35.086Z,-4.73
2022-12-18T07:05:41.894Z,-4.69
2022-12-18T07:08:45.232Z,-4.63
2022-12-18T07:11:48.278Z,-4.61
2022-12-18T07:14:50.696Z,-4.58
2022-12-18T07:17:53.539Z,-4.54
2022-12-18T07:20:55.995Z,-4.47
2022-12-18T07:23:58.981Z,-4.31
2022-12-18T07:27:01.892Z,-4.23
2022-12-18T07:30:05.365Z,-4.19
2022-12-18T07:33:08.146Z,-4.12
2022-12-18T07:36:11.882Z,-4.03
2022-12-18T07:39:14.617Z,-3.95
2022-12-18T07:42:32.778Z,-3.80
2022-12-18T07:45:35.280Z,-3.71
2022-12-18T07:48:38.140Z,-3.63
2022-12-18T07:51:40.578Z,-3.59
2022-12-18T07:54:43.572Z,-3.48
2022-12-18T07:57:51.857Z,-3.44
2022-12-18T08:01:06.108Z,-3.38
2022-12-18T08:04:09.356Z,-3.33
2022-12-18T08:07:11.857Z,-3.25
2022-12-18T08:10:14.666Z,-3.18
2022-12-18T08:13:17.084Z,-3.07
2022-12-18T08:16:20.897Z,-2.99
2022-12-18T08:19:23.623Z,-3.05
2022-12-18T08:22:26.389Z,-2.98
2022-12-18T08:25:28.826Z,-2.85
2022-12-18T08:28:31.669Z,-2.83
2022-12-18T08:31:34.299Z,-2.74
2022-12-18T08:34:37.345Z,-2.66
2022-12-18T08:37:39.728Z,-2.56
2022-12-18T08:40:42.985Z,-2.47
2022-12-18T08:44:04.414Z,-2.47
2022-12-18T08:47:08.424Z,-2.30
2022-12-18T08:50:12.135Z,-2.14
2022-12-18T08:53:15.306Z,-2.09
2022-12-18T08:56:17.986Z,-1.94
2022-12-18T08:59:21.310Z,-1.77
2022-12-18T09:02:24.253Z,-1.76
2022-12-18T09:05:27.051Z,-1.57
2022-12-18T09:08:30.446Z,-1.49
2022-12-18T09:11:34.272Z,-1.38
2022-12-18T09:14:37.008Z,-1.22
2022-12-18T09:17:39.834Z,-1.14
2022-12-18T09:20:42.891Z,-1.02
2022-12-18T09:23:53.632Z,-0.99
2022-12-18T09:26:57.775Z,-1.03
2022-12-18T09:30:00.996Z,-0.95
2022-12-18T09:33:03.798Z,-0.84
2022-12-18T09:36:08.779Z,-0.79
2022-12-18T09:39:11.312Z,-0.77
2022-12-18T09:42:21.410Z,-0.59
2022-12-18T09:45:25.105Z,-0.51
2022-12-18T09:48:41.971Z,-0.47
2022-12-18T09:51:53.504Z,-0.41
2022-12-18T09:55:00.297Z,-0.26
2022-12-18T09:58:11.224Z,-0.20
2022-12-18T10:01:23.823Z,-0.11
2022-12-18T10:04:31.888Z,0.01
2022-12-18T10:08:17.434Z,0.06
2022-12-18T10:11:40.972Z,0.21
2022-12-18T10:14:55.738Z,0.26
2022-12-18T10:18:05.559Z,0.20
2022-12-18T10:21:16.430Z,0.40
2022-12-18T10:24:33.594Z,0.51
2022-12-18T10:27:36.212Z,0.58
2022-12-18T10:30:41.098Z,0.58
2022-12-18T10:33:44.387Z,0.61
2022-12-18T10:36:48.751Z,0.61
2022-12-18T10:40:09.495Z,0.72
2022-12-18T10:43:15.551Z,0.79
2022-12-18T10:46:20.869Z,0.81
2022-12-18T10:49:27.799Z,0.80
2022-12-18T10:52:31.025Z,0.85
2022-12-18T10:55:38.704Z,1.00
2022-12-18T10:58:41.825Z,1.02
2022-12-18T11:01:58.489Z,1.03
2022-12-18T11:05:01.950Z,1.10
2022-12-18T11:08:04.997Z,1.12
2022-12-18T11:11:31.590Z,1.16
2022-12-18T11:14:47.141Z,1.14
2022-12-18T11:17:51.960Z,1.27
2022-12-18T11:21:00.321Z,1.36
2022-12-18T11:24:03.069Z,1.48
2022-12-18T11:27:16.429Z,1.54
2022-12-18T11:30:23.810Z,1.51
2022-12-18T11:33:26.991Z,1.57
2022-12-18T11:36:34.831Z,1.65
2022-12-18T11:39:42.294Z,1.78
2022-12-18T11:42:55.907Z,1.71
2022-12-18T11:46:08.481Z,1.77
2022-12-18T11:49:18.245Z,1.90
2022-12-18T11:52:29.274Z,1.98
2022-12-18T11:55:45.776Z,1.85
2022-12-18T11:58:59.526Z,1.87
2022-12-18T12:02:14.319Z,1.91
2022-12-18T12:05:37.834Z,1.96
2022-12-18T12:09:02.325Z,1.95
2022-12-18T12:12:23.079Z,1.99
2022-12-18T12:15:36.955Z,2.04
2022-12-18T12:18:51.183Z,2.05
2022-12-18T12:22:05.029Z,2.03
2022-12-18T12:25:34.094Z,2.31
2022-12-18T12:28:43.007Z,3.00
2022-12-18T12:31:54.087Z,3.10
2022-12-18T12:35:27.886Z,3.72
2022-12-18T12:38:51.617Z,3.70
2022-12-18T12:42:14.942Z,3.80
2022-12-18T12:45:27.101Z,3.67
2022-12-18T12:49:00.697Z,3.14
2022-12-18T12:52:13.326Z,3.01
2022-12-18T12:55:22.972Z,2.68
2022-12-18T12:58:42.704Z,2.49
2022-12-18T13:02:03.688Z,2.40
2022-12-18T13:05:39.678Z,2.43
2022-12-18T13:08:56.023Z,2.39
2022-12-18T13:12:34.865Z,2.47
2022-12-18T13:15:40.855Z,3.04
2022-12-18T13:18:53.061Z,4.21
2022-12-18T13:21:57.611Z,3.97
2022-12-18T13:25:00.891Z,3.46
2022-12-18T13:28:10.025Z,3.08
2022-12-18T13:31:13.650Z,2.67
2022-12-18T13:34:27.496Z,2.44
2022-12-18T13:37:33.688Z,2.34
2022-12-18T13:40:48.458Z,2.23
2022-12-18T13:43:58.797Z,2.03
2022-12-18T13:47:03.570Z,1.85
2022-12-18T13:50:32.282Z,1.73
2022-12-18T13:53:45.261Z,1.56
2022-12-18T13:56:49.465Z,1.41
2022-12-18T13:59:52.560Z,1.34
2022-12-18T14:02:56.662Z,1.21
2022-12-18T14:06:07.285Z,1.06
2022-12-18T14:09:20.304Z,0.97
2022-12-18T14:14:37.584Z,0.82
2022-12-18T14:17:40.793Z,0.64
2022-12-18T14:20:52.597Z,0.50
2022-12-18T14:24:17.554Z,0.34
2022-12-18T14:27:26.028Z,0.23
2022-12-18T14:30:36.207Z,0.10
2022-12-18T14:33:39.509Z,-0.07
2022-12-18T14:36:53.531Z,-0.14
2022-12-18T14:40:08.667Z,-0.19
2022-12-18T14:43:13.859Z,-0.27
2022-12-18T14:46:35.431Z,-0.36
2022-12-18T14:49:43.242Z,-0.39
2022-12-18T14:52:45.898Z,-0.45
2022-12-18T14:55:49.529Z,-0.40
2022-12-18T14:58:59.059Z,-0.43
2022-12-18T15:02:23.205Z,-0.45
2022-12-18T15:05:31.039Z,-0.45
2022-12-18T15:08:38.381Z,-0.42
2022-12-18T15:11:40.952Z,-0.58
2022-12-18T15:14:43.797Z,-0.77
2022-12-18T15:17:46.290Z,-0.97
2022-12-18T15:20:56.166Z,-1.10
2022-12-18T15:23:58.744Z,-1.21
2022-12-18T15:27:02.188Z,-1.32
2022-12-18T15:30:24.903Z,-1.41
2022-12-18T15:33:32.362Z,-1.50
2022-12-18T15:36:37.679Z,-1.59
2022-12-18T15:39:40.453Z,-1.68
2022-12-18T15:43:02.750Z,-1.75
2022-12-18T15:46:11.991Z,-1.74
2022-12-18T15:49:14.530Z,-1.83
2022-12-18T15:52:26.970Z,-1.86
2022-12-18T15:55:48.460Z,-1.97
2022-12-18T15:58:51.294Z,-2.05
2022-12-18T16:01:54.419Z,-2.12
2022-12-18T16:04:57.357Z,-2.14
2022-12-18T16:07:59.986Z,-2.14
2022-12-18T16:11:03.446Z,-2.18
2022-12-18T16:14:22.407Z,-2.18
2022-12-18T16:17:25.324Z,-2.23
2022-12-18T16:20:27.814Z,-2.27
2022-12-18T16:23:30.535Z,-2.36
2022-12-18T16:26:33.104Z,-2.43
2022-12-18T16:29:35.896Z,-2.51
2022-12-18T16:32:38.472Z,-2.59
2022-12-18T16:35:41.526Z,-2.63
2022-12-18T16:38:45.147Z,-2.60
2022-12-18T16:41:48.283Z,-2.70
2022-12-18T16:44:51.040Z,-2.77
2022-12-18T16:47:53.780Z,-2.79
2022-12-18T16:51:05.333Z,-2.81
2022-12-18T16:54:11.002Z,-2.85
2022-12-18T16:57:17.711Z,-2.90
2022-12-18T17:00:20.603Z,-2.94
2022-12-18T17:03:24.905Z,-2.89
2022-12-18T17:06:31.562Z,-2.90
2022-12-18T17:09:34.278Z,-2.94
2022-12-18T17:12:37.370Z,-2.90
2022-12-18T17:15:40.004Z,-2.94
2022-12-18T17:18:43.310Z,-2.84
2022-12-18T17:21:48.599Z,-2.81
2022-12-18T17:24:51.446Z,-2.87
2022-12-18T17:27:54.000Z,-2.95
2022-12-18T17:30:57.411Z,-3.03
2022-12-18T17:34:02.018Z,-3.16
2022-12-18T17:37:04.832Z,-3.24
2022-12-18T17:40:08.206Z,-3.13
2022-12-18T17:43:11.940Z,-3.15
2022-12-18T17:46:15.212Z,-3.23
2022-12-18T17:49:18.130Z,-3.31
2022-12-18T17:52:20.627Z,-3.31
2022-12-18T17:55:23.586Z,-3.21
2022-12-18T17:58:26.301Z,-3.14
2022-12-18T18:01:29.442Z,-3.12
2022-12-18T18:04:32.345Z,-3.18
2022-12-18T18:07:35.067Z,-3.24
2022-12-18T18:10:39.542Z,-3.28
2022-12-18T18:14:00.876Z,-3.31
2022-12-18T18:17:04.890Z,-3.34
2022-12-18T18:20:08.179Z,-3.44
2022-12-18T18:23:11.469Z,-3.51
2022-12-18T18:26:14.221Z,-3.66
2022-12-18T18:29:20.970Z,-3.68
2022-12-18T18:32:23.629Z,-3.74
2022-12-18T18:35:52.737Z,-3.80
2022-12-18T18:38:49.287Z,-3.82
2022-12-18T18:41:52.195Z,-3.86
2022-12-18T18:44:54.685Z,-3.88
2022-12-18T18:47:59.083Z,-3.88
2022-12-18T18:51:06.771Z,-3.89
2022-12-18T18:54:10.069Z,-3.90
2022-12-18T18:57:25.206Z,-3.88
2022-12-18T19:00:30.450Z,-3.89
2022-12-18T19:03:33.633Z,-3.95
2022-12-18T19:06:36.507Z,-3.97
2022-12-18T19:09:39.912Z,-3.91
2022-12-18T19:13:03.025Z,-3.89
2022-12-18T19:16:08.639Z,-3.91
2022-12-18T19:19:13.489Z,-4.04
2022-12-18T19:22:16.198Z,-4.13
2022-12-18T19:25:19.065Z,-4.16
2022-12-18T19:28:26.265Z,-4.20
2022-12-18T19:31:35.144Z,-4.22
2022-12-18T19:34:38.625Z,-4.21
2022-12-18T19:37:41.683Z,-4.26
2022-12-18T19:40:46.076Z,-4.26
2022-12-18T19:43:49.523Z,-4.16
2022-12-18T19:46:51.985Z,-4.14
2022-12-18T19:49:54.888Z,-4.21
2022-12-18T19:52:57.899Z,-4.26
2022-12-18T19:56:09.342Z,-4.30
2022-12-18T19:59:11.937Z,-4.39
2022-12-18T20:02:14.837Z,-4.42
2022-12-18T20:05:22.197Z,-4.42
2022-12-18T20:08:24.744Z,-4.46
2022-12-18T20:11:31.571Z,-4.50
2022-12-18T20:14:34.152Z,-4.51
2022-12-18T20:17:37.041Z,-4.58
2022-12-18T20:20:39.936Z,-4.55
2022-12-18T20:23:43.604Z,-4.59
2022-12-18T20:26:46.472Z,-4.52
2022-12-18T20:29:49.451Z,-4.57
2022-12-18T20:32:51.954Z,-4.56
2022-12-18T20:35:59.842Z,-4.59
2022-12-18T20:39:04.017Z,-4.59
2022-12-18T20:42:09.294Z,-4.60
2022-12-18T20:45:11.767Z,-4.61
2022-12-18T20:48:14.599Z,-4.60
2022-12-18T20:51:20.206Z,-4.53
2022-12-18T20:54:25.186Z,-4.45
2022-12-18T20:57:27.976Z,-4.53
2022-12-18T21:00:30.786Z,-4.54
2022-12-18T21:03:36.745Z,-4.57
2022-12-18T21:06:39.597Z,-4.57
2022-12-18T21:09:42.655Z,-4.59
2022-12-18T21:13:00.078Z,-4.62
2022-12-18T21:16:07.451Z,-4.63
2022-12-18T21:19:14.624Z,-4.63
2022-12-18T21:22:17.067Z,-4.50
2022-12-18T21:25:20.122Z,-4.49
2022-12-18T21:28:22.584Z,-4.44
2022-12-18T21:31:28.343Z,-4.47
2022-12-18T21:34:32.552Z,-4.45
2022-12-18T21:37:35.570Z,-4.45
2022-12-18T21:40:39.440Z,-4.46
2022-12-18T21:44:00.584Z,-4.43
2022-12-18T21:47:12.312Z,-4.38
2022-12-18T21:50:25.595Z,-4.39
2022-12-18T21:53:28.149Z,-4.42
2022-12-18T21:56:50.397Z,-4.42
2022-12-18T21:59:52.864Z,-4.47
2022-12-18T22:03:17.407Z,-4.47
2022-12-18T22:06:18.425Z,-4.39
2022-12-18T22:09:23.564Z,-4.44
2022-12-18T22:12:36.422Z,-4.40
2022-12-18T22:15:43.188Z,-4.44
2022-12-18T22:18:46.146Z,-4.46
2022-12-18T22:21:49.489Z,-4.43
2022-12-18T22:24:52.298Z,-4.45
2022-12-18T22:28:13.560Z,-4.45
2022-12-18T22:31:16.384Z,-4.51
2022-12-18T22:34:22.802Z,-4.55
2022-12-18T22:37:26.204Z,-4.59
2022-12-18T22:40:29.458Z,-4.65
2022-12-18T22:43:33.435Z,-4.62
2022-12-18T22:46:39.261Z,-4.66
2022-12-18T22:49:42.172Z,-4.65
2022-12-18T22:52:44.681Z,-4.65
2022-12-18T22:55:47.496Z,-4.72
2022-12-18T22:58:51.459Z,-4.79
2022-12-18T23:01:58.721Z,-4.80
2022-12-18T23:05:01.887Z,-4.83
2022-12-18T23:08:05.026Z,-4.82
2022-12-18T23:11:08.302Z,-4.86
2022-12-18T23:14:12.106Z,-4.79
2022-12-18T23:17:14.616Z,-4.72
2022-12-18T23:20:17.398Z,-4.68
2022-12-18T23:23:19.856Z,-4.71
2022-12-18T23:26:24.710Z,-4.79
2022-12-18T23:29:27.893Z,-4.80
2022-12-18T23:32:30.669Z,-4.77
2022-12-18T23:35:35.506Z,-4.83
2022-12-18T23:38:38.498Z,-4.83
2022-12-18T23:41:40.945Z,-4.75
2022-12-18T23:44:43.692Z,-4.65
2022-12-18T23:47:47.030Z,-4.46
2022-12-18T23:50:53.758Z,-4.32
2022-12-18T23:53:59.650Z,-4.28
2022-12-18T23:57:02.705Z,-4.20
